首页
METAR-TAF:

METAR-TAF

机场 :

Lloydminster, 艾伯塔, 加拿大

纬度: 53-19N, 经度: 110-04W, 海拔: 665米

当前天气观测

该预报发布于55分钟前的18:00 UTC
风速17节,风向西,有时为23节阵风,在西北转西北之间变化
温度 19°C
湿度 28%
气压 1013 hPa
能見度: 24.1公里
少量云层高于6500英尺
散云层高于25000英尺

METAR: CYLL 021800Z 28017G23KT 260V330 15SM FEW065 SCT250 19/M00 A2992 RMK CU2CI1 CI TR SLP140 DENSITY ALT 3200FT

时间: 12:55 (18:55 UTC)

预报

该预报发布于1小时和16分钟前的17:39 UTC
预报有效从02日的 18点(UTC)到 03日的 06点(UTC)
风速15节,风向西,有时为25节阵风
能見度: 10公里
少量云层高于8000英尺
散云层高于25000英尺
成为
从 02日的 23点(UTC)到 03日的 01点(UTC)
风速8节,风向
散云层高于6000英尺
多云层高于20000英尺
从 03日的 0400点(UTC)
风速8节,风向
能見度: 10公里
多云层高于6000英尺
阴天层高于12000英尺
短暂存在
从 03日的 04点(UTC)到 03日的 06点(UTC)
能見度: 10公里
阴天层高于6000英尺
小雨

TAF: CYLL 021739Z 0218/0306 27015G25KT P6SM FEW080 SCT250 BECMG 0223/0301 18008KT SCT060 BKN200 FM030400 18008KT P6SM BKN060 OVC120 TEMPO 0304/0306 P6SM -RA OVC060 RMK NXT FCST BY 030000Z

超过4000个机场的气象观测和天气预报(METAR&TAF报告)。

可查询的气象台以黄色和红色小点在地图上表示。

将鼠标移到小点上方,可查看气象台名称。

然后点击查看天气观测和预报。

如需切换地图:点击带黑十字的绿色按钮放大地图;点击带横线的绿色按钮缩小地图;或者点击绿色箭头查看邻近地区的地图。


METAR-TAF: